createdAt,value
2019-03-10T00:00:08.393Z,4.10
2019-03-10T00:00:20.199Z,4.10
2019-03-10T00:00:31.945Z,4.10
2019-03-10T00:00:43.758Z,4.10
2019-03-10T00:00:55.513Z,4.20
2019-03-10T00:01:07.288Z,4.10
2019-03-10T00:01:19.050Z,4.20
2019-03-10T00:01:33.158Z,4.20
2019-03-10T00:01:44.928Z,4.20
2019-03-10T00:01:56.740Z,4.20
2019-03-10T00:02:10.437Z,4.20
2019-03-10T00:02:20.370Z,4.20
2019-03-10T00:02:32.152Z,4.20
2019-03-10T00:02:43.920Z,4.20
2019-03-10T00:02:55.752Z,4.20
2019-03-10T00:03:07.501Z,4.20
2019-03-10T00:03:21.612Z,4.30
2019-03-10T00:03:33.376Z,4.30
2019-03-10T00:03:45.154Z,4.30
2019-03-10T00:03:57.044Z,4.30
2019-03-10T00:04:08.812Z,4.30
2019-03-10T00:04:20.612Z,4.30
2019-03-10T00:04:32.451Z,4.40
2019-03-10T00:04:44.251Z,4.40
2019-03-10T00:04:56.045Z,4.40
2019-03-10T00:05:07.819Z,4.40
2019-03-10T00:05:19.643Z,4.40
2019-03-10T00:05:31.409Z,4.40
2019-03-10T00:05:43.163Z,4.40
2019-03-10T00:05:54.944Z,4.40
2019-03-10T00:06:06.754Z,4.40
2019-03-10T00:06:18.557Z,4.40
2019-03-10T00:06:30.352Z,4.40
2019-03-10T00:06:42.122Z,4.40
2019-03-10T00:06:56.242Z,4.40
2019-03-10T00:07:08.050Z,4.40
2019-03-10T00:07:19.784Z,4.40
2019-03-10T00:07:31.560Z,4.50
2019-03-10T00:07:43.365Z,4.50
2019-03-10T00:07:55.109Z,4.50
2019-03-10T00:08:07.979Z,4.50
2019-03-10T00:08:21.006Z,4.50
2019-03-10T00:08:32.788Z,4.50
2019-03-10T00:08:44.555Z,4.50
2019-03-10T00:08:56.363Z,4.50
2019-03-10T00:09:08.209Z,4.60
2019-03-10T00:09:20.103Z,4.50
2019-03-10T00:09:31.883Z,4.60
2019-03-10T00:09:43.638Z,4.60
2019-03-10T00:09:55.415Z,4.60
2019-03-10T00:10:07.279Z,4.60
2019-03-10T00:10:19.064Z,4.60
2019-03-10T00:10:30.829Z,4.60
2019-03-10T00:10:42.586Z,4.60
2019-03-10T00:10:54.350Z,4.60
2019-03-10T00:11:06.202Z,4.60
2019-03-10T00:11:18.001Z,4.60
2019-03-10T00:11:29.875Z,4.60
2019-03-10T00:11:41.650Z,4.60
2019-03-10T00:11:55.781Z,4.60
2019-03-10T00:12:09.875Z,4.70
2019-03-10T00:12:21.625Z,4.70
2019-03-10T00:12:33.431Z,4.70
2019-03-10T00:12:45.277Z,4.70
2019-03-10T00:12:57.054Z,4.70
2019-03-10T00:13:08.849Z,4.70
2019-03-10T00:13:20.622Z,4.70
2019-03-10T00:13:32.469Z,4.70
2019-03-10T00:13:44.240Z,4.70
2019-03-10T00:13:56.017Z,4.70
2019-03-10T00:14:07.799Z,4.70
2019-03-10T00:14:19.655Z,4.70
2019-03-10T00:14:33.775Z,4.80
2019-03-10T00:14:45.537Z,4.70
2019-03-10T00:14:57.293Z,4.80
2019-03-10T00:15:09.109Z,4.80
2019-03-10T00:15:20.913Z,4.80
2019-03-10T00:15:32.747Z,4.80
2019-03-10T00:15:44.536Z,4.80
2019-03-10T00:15:56.305Z,4.80
2019-03-10T00:16:08.069Z,4.80
2019-03-10T00:16:19.838Z,4.80
2019-03-10T00:16:31.611Z,4.80
2019-03-10T00:16:43.374Z,4.80
2019-03-10T00:16:55.188Z,4.80
2019-03-10T00:17:07.033Z,4.80
2019-03-10T00:17:18.807Z,4.80
2019-03-10T00:17:30.574Z,4.80
2019-03-10T00:17:42.459Z,4.80
2019-03-10T00:17:54.225Z,4.80
2019-03-10T00:18:05.993Z,4.80
2019-03-10T00:18:17.749Z,4.80
2019-03-10T00:18:29.540Z,4.90
2019-03-10T00:18:41.309Z,4.90
2019-03-10T00:18:53.091Z,4.90
2019-03-10T00:19:04.921Z,4.90
2019-03-10T00:19:16.747Z,4.90
2019-03-10T00:19:28.590Z,4.90
2019-03-10T00:19:43.089Z,4.90
2019-03-10T00:19:52.933Z,4.90
2019-03-10T00:20:07.154Z,4.90
2019-03-10T00:20:18.918Z,4.90
2019-03-10T00:20:33.039Z,4.90
2019-03-10T00:20:44.804Z,4.90
2019-03-10T00:20:56.644Z,4.90
2019-03-10T00:21:08.419Z,4.90
2019-03-10T00:21:20.348Z,4.90
2019-03-10T00:21:32.147Z,4.90
2019-03-10T00:21:43.945Z,4.90
2019-03-10T00:21:55.858Z,4.90
2019-03-10T00:22:07.613Z,4.90
2019-03-10T00:22:19.442Z,4.90
2019-03-10T00:22:31.212Z,4.90
2019-03-10T00:22:42.989Z,4.90
2019-03-10T00:22:54.745Z,4.90
2019-03-10T00:23:06.519Z,4.90
2019-03-10T00:23:18.342Z,4.90
2019-03-10T00:23:30.160Z,4.90
2019-03-10T00:23:44.286Z,4.90
2019-03-10T00:23:56.063Z,4.90
2019-03-10T00:24:07.846Z,4.90
2019-03-10T00:24:19.619Z,4.90
2019-03-10T00:24:31.419Z,4.90
2019-03-10T00:24:43.194Z,4.90
2019-03-10T00:24:54.940Z,4.90
2019-03-10T00:25:06.697Z,4.90
2019-03-10T00:25:18.480Z,4.80
2019-03-10T00:25:30.257Z,4.90
2019-03-10T00:25:42.031Z,4.90
2019-03-10T00:25:53.792Z,4.90
2019-03-10T00:26:05.562Z,4.90
2019-03-10T00:26:17.333Z,4.90
2019-03-10T00:26:29.152Z,4.90
2019-03-10T00:26:43.265Z,4.90
2019-03-10T00:26:55.049Z,4.80
2019-03-10T00:27:06.817Z,4.80
2019-03-10T00:27:18.671Z,4.90
2019-03-10T00:27:30.421Z,4.90
2019-03-10T00:27:42.191Z,4.90
2019-03-10T00:27:53.952Z,4.80
2019-03-10T00:28:08.062Z,4.80
2019-03-10T00:28:19.834Z,4.80
2019-03-10T00:28:31.610Z,4.80
2019-03-10T00:28:43.456Z,4.80
2019-03-10T00:28:55.258Z,4.80
2019-03-10T00:29:07.031Z,4.80
2019-03-10T00:29:18.820Z,4.80
2019-03-10T00:29:31.750Z,4.80
2019-03-10T00:29:43.598Z,4.80
2019-03-10T00:29:58.438Z,4.80
2019-03-10T00:30:10.246Z,4.80
2019-03-10T00:30:22.042Z,4.80
2019-03-10T00:30:33.790Z,4.80
2019-03-10T00:30:47.935Z,4.80
2019-03-10T00:30:59.698Z,4.80
2019-03-10T00:31:11.479Z,4.80
2019-03-10T00:31:23.253Z,4.80
2019-03-10T00:31:37.346Z,4.80
2019-03-10T00:31:49.158Z,4.80
2019-03-10T00:32:00.911Z,4.80
2019-03-10T00:32:12.739Z,4.70
2019-03-10T00:32:24.514Z,4.70
2019-03-10T00:32:36.340Z,4.70
2019-03-10T00:32:48.117Z,4.70
2019-03-10T00:32:59.941Z,4.80
2019-03-10T00:33:11.692Z,4.80
2019-03-10T00:33:25.853Z,4.80
2019-03-10T00:33:37.617Z,4.80
2019-03-10T00:33:49.382Z,4.80
2019-03-10T00:34:03.565Z,4.80
2019-03-10T00:34:16.750Z,4.80
2019-03-10T00:34:27.214Z,4.80
2019-03-10T00:34:41.336Z,4.80
2019-03-10T00:34:55.392Z,4.80
2019-03-10T00:35:07.155Z,4.80
2019-03-10T00:35:18.907Z,4.80
2019-03-10T00:35:30.676Z,4.70
2019-03-10T00:35:42.431Z,4.70
2019-03-10T00:35:56.542Z,4.80
2019-03-10T00:36:08.394Z,4.70
2019-03-10T00:36:20.150Z,4.80
2019-03-10T00:36:31.933Z,4.80
2019-03-10T00:36:43.751Z,4.80
2019-03-10T00:36:55.513Z,4.80
2019-03-10T00:37:07.274Z,4.70
2019-03-10T00:37:19.017Z,4.80
2019-03-10T00:37:30.771Z,4.80
2019-03-10T00:37:44.877Z,4.80
2019-03-10T00:37:56.642Z,4.70
2019-03-10T00:38:08.439Z,4.80
2019-03-10T00:38:20.230Z,4.80
2019-03-10T00:38:32.008Z,4.80
2019-03-10T00:38:46.146Z,4.80
2019-03-10T00:38:57.913Z,4.80
2019-03-10T00:39:12.052Z,4.80
2019-03-10T00:39:23.822Z,4.70
2019-03-10T00:39:37.965Z,4.80
2019-03-10T00:39:49.710Z,4.70
2019-03-10T00:40:01.463Z,4.70
2019-03-10T00:40:13.235Z,4.70
2019-03-10T00:40:25.166Z,4.70
2019-03-10T00:40:36.945Z,4.70
2019-03-10T00:40:48.698Z,4.70
2019-03-10T00:41:00.464Z,4.70
2019-03-10T00:41:12.238Z,4.70
2019-03-10T00:41:24.045Z,4.70
2019-03-10T00:41:38.168Z,4.60
2019-03-10T00:41:50.043Z,4.60
2019-03-10T00:42:04.153Z,4.70
2019-03-10T00:42:15.930Z,4.60
2019-03-10T00:42:27.762Z,4.70
2019-03-10T00:42:39.555Z,4.70
2019-03-10T00:42:51.330Z,4.70
2019-03-10T00:43:03.143Z,4.70
2019-03-10T00:43:14.899Z,4.60
2019-03-10T00:43:26.738Z,4.60
2019-03-10T00:43:38.507Z,4.70
2019-03-10T00:43:50.291Z,4.70
2019-03-10T00:44:02.147Z,4.70
2019-03-10T00:44:13.933Z,4.70
2019-03-10T00:44:25.716Z,4.70
2019-03-10T00:44:37.592Z,4.70
2019-03-10T00:44:49.352Z,4.70
2019-03-10T00:45:01.133Z,4.70
2019-03-10T00:45:12.952Z,4.70
2019-03-10T00:45:24.737Z,4.70
2019-03-10T00:45:36.542Z,4.70
2019-03-10T00:45:48.326Z,4.70
2019-03-10T00:46:00.103Z,4.70
2019-03-10T00:46:14.243Z,4.70
2019-03-10T00:46:26.010Z,4.70
2019-03-10T00:46:37.782Z,4.70
2019-03-10T00:46:49.548Z,4.70
2019-03-10T00:47:01.468Z,4.70
2019-03-10T00:47:13.252Z,4.70
2019-03-10T00:47:25.059Z,4.60
2019-03-10T00:47:36.826Z,4.60
2019-03-10T00:47:48.611Z,4.60
2019-03-10T00:48:00.387Z,4.60
2019-03-10T00:48:12.153Z,4.60
2019-03-10T00:48:23.917Z,4.60
2019-03-10T00:48:35.725Z,4.60
2019-03-10T00:48:47.548Z,4.60
2019-03-10T00:48:59.349Z,4.60
2019-03-10T00:49:11.102Z,4.60
2019-03-10T00:49:22.931Z,4.60
2019-03-10T00:49:34.770Z,4.50
2019-03-10T00:49:46.569Z,4.50
2019-03-10T00:49:58.333Z,4.50
2019-03-10T00:50:10.086Z,4.50
2019-03-10T00:50:22.963Z,4.50
2019-03-10T00:50:34.741Z,4.50
2019-03-10T00:50:46.519Z,4.50
2019-03-10T00:50:58.280Z,4.50
2019-03-10T00:51:10.057Z,4.50
2019-03-10T00:51:21.819Z,4.50
2019-03-10T00:51:34.467Z,4.50
2019-03-10T00:51:45.361Z,4.50
2019-03-10T00:51:57.500Z,4.50
2019-03-10T00:52:09.348Z,4.60
2019-03-10T00:52:21.111Z,4.50
2019-03-10T00:52:32.964Z,4.50
2019-03-10T00:52:44.745Z,4.50
2019-03-10T00:52:56.523Z,4.50
2019-03-10T00:53:08.296Z,4.50
2019-03-10T00:53:20.054Z,4.60
2019-03-10T00:53:31.834Z,4.50
2019-03-10T00:53:43.601Z,4.60
2019-03-10T00:53:55.357Z,4.50
2019-03-10T00:54:09.446Z,4.60
2019-03-10T00:54:21.212Z,4.50
2019-03-10T00:54:33.040Z,4.50
2019-03-10T00:54:47.179Z,4.50
2019-03-10T00:54:58.961Z,4.50
2019-03-10T00:55:11.040Z,4.50
2019-03-10T00:55:22.808Z,4.50
2019-03-10T00:55:36.888Z,4.50
2019-03-10T00:55:48.633Z,4.50
2019-03-10T00:56:00.391Z,4.50
2019-03-10T00:56:12.154Z,4.50
2019-03-10T00:56:23.911Z,4.50
2019-03-10T00:56:35.669Z,4.50
2019-03-10T00:56:47.450Z,4.50
2019-03-10T00:56:59.267Z,4.50
2019-03-10T00:57:13.371Z,4.50
2019-03-10T00:57:25.124Z,4.40
2019-03-10T00:57:36.888Z,4.40
2019-03-10T00:57:48.655Z,4.40
2019-03-10T00:58:03.599Z,4.40
2019-03-10T00:58:15.348Z,4.40
2019-03-10T00:58:27.109Z,4.40
2019-03-10T00:58:38.877Z,4.40
2019-03-10T00:58:50.693Z,4.40
2019-03-10T00:59:02.446Z,4.40
2019-03-10T00:59:14.209Z,4.40
2019-03-10T00:59:26.049Z,4.40
2019-03-10T00:59:37.862Z,4.40
2019-03-10T00:59:49.697Z,4.40
2019-03-10T01:00:01.544Z,4.40
2019-03-10T01:00:13.349Z,4.40
2019-03-10T01:00:25.271Z,4.40
2019-03-10T01:00:37.047Z,4.40
2019-03-10T01:00:48.797Z,4.40
2019-03-10T01:01:00.552Z,4.40
2019-03-10T01:01:12.312Z,4.40
2019-03-10T01:01:24.082Z,4.40
2019-03-10T01:01:35.846Z,4.40
2019-03-10T01:01:47.618Z,4.40
2019-03-10T01:01:59.452Z,4.40
2019-03-10T01:02:11.210Z,4.40
2019-03-10T01:02:22.978Z,4.40
2019-03-10T01:02:34.735Z,4.40
2019-03-10T01:02:48.835Z,4.40
2019-03-10T01:03:00.588Z,4.40
2019-03-10T01:03:12.397Z,4.40
2019-03-10T01:03:24.167Z,4.40
2019-03-10T01:03:35.946Z,4.40
2019-03-10T01:03:47.715Z,4.40
2019-03-10T01:03:59.495Z,4.30
2019-03-10T01:04:11.374Z,4.40
2019-03-10T01:04:23.152Z,4.30
2019-03-10T01:04:34.950Z,4.30
2019-03-10T01:04:49.084Z,4.30
2019-03-10T01:05:00.842Z,4.30
2019-03-10T01:05:12.586Z,4.30
2019-03-10T01:05:24.464Z,4.30
2019-03-10T01:05:36.261Z,4.30
2019-03-10T01:05:48.046Z,4.30
2019-03-10T01:05:59.874Z,4.30
2019-03-10T01:06:11.648Z,4.30
2019-03-10T01:06:23.448Z,4.30
2019-03-10T01:06:35.243Z,4.30
2019-03-10T01:06:47.048Z,4.30
2019-03-10T01:06:58.816Z,4.40
2019-03-10T01:07:10.646Z,4.40
2019-03-10T01:07:22.476Z,4.40
2019-03-10T01:07:34.271Z,4.30
2019-03-10T01:07:46.086Z,4.30
2019-03-10T01:07:57.870Z,4.30
2019-03-10T01:08:09.636Z,4.30
2019-03-10T01:08:21.447Z,4.30
2019-03-10T01:08:33.217Z,4.30
2019-03-10T01:08:44.993Z,4.30
2019-03-10T01:08:56.764Z,4.30
2019-03-10T01:09:08.529Z,4.30
2019-03-10T01:09:20.369Z,4.40
2019-03-10T01:09:32.154Z,4.40
2019-03-10T01:09:43.935Z,4.40
2019-03-10T01:09:55.762Z,4.40
2019-03-10T01:10:07.702Z,4.40
2019-03-10T01:10:19.560Z,4.40
2019-03-10T01:10:31.304Z,4.40
2019-03-10T01:10:45.446Z,4.40
2019-03-10T01:10:57.240Z,4.40
2019-03-10T01:11:09.023Z,4.40
2019-03-10T01:11:20.795Z,4.40
2019-03-10T01:11:32.572Z,4.40
2019-03-10T01:11:44.361Z,4.40
2019-03-10T01:11:56.130Z,4.40
2019-03-10T01:12:10.254Z,4.40
2019-03-10T01:12:22.006Z,4.40
2019-03-10T01:12:36.137Z,4.40
2019-03-10T01:12:47.946Z,4.40
2019-03-10T01:12:59.713Z,4.40
2019-03-10T01:13:11.513Z,4.40
2019-03-10T01:13:23.368Z,4.40
2019-03-10T01:13:35.611Z,4.40
2019-03-10T01:13:47.456Z,4.40
2019-03-10T01:13:59.245Z,4.40
2019-03-10T01:14:11.022Z,4.40
2019-03-10T01:14:22.852Z,4.40
2019-03-10T01:14:34.616Z,4.40
2019-03-10T01:14:48.779Z,4.50
2019-03-10T01:15:00.605Z,4.50
2019-03-10T01:15:12.466Z,4.50
2019-03-10T01:15:24.254Z,4.50
2019-03-10T01:15:36.028Z,4.50
2019-03-10T01:15:47.798Z,4.50
2019-03-10T01:15:59.658Z,4.50
2019-03-10T01:16:11.538Z,4.50
2019-03-10T01:16:23.297Z,4.50
2019-03-10T01:16:35.151Z,4.50
2019-03-10T01:16:46.953Z,4.50
2019-03-10T01:16:58.726Z,4.50
2019-03-10T01:17:10.494Z,4.50
2019-03-10T01:17:22.277Z,4.50
2019-03-10T01:17:34.043Z,4.50
2019-03-10T01:17:45.837Z,4.50
2019-03-10T01:17:57.620Z,4.50
2019-03-10T01:18:09.393Z,4.40
2019-03-10T01:18:21.155Z,4.50
2019-03-10T01:18:32.951Z,4.50
2019-03-10T01:18:44.740Z,4.50
2019-03-10T01:18:56.550Z,4.50
2019-03-10T01:19:08.353Z,4.50
2019-03-10T01:19:20.123Z,4.40
2019-03-10T01:19:31.886Z,4.50
2019-03-10T01:19:46.082Z,4.50
2019-03-10T01:19:57.893Z,4.50
2019-03-10T01:20:12.034Z,4.50
2019-03-10T01:20:23.756Z,4.50
2019-03-10T01:20:35.519Z,4.50
2019-03-10T01:20:47.351Z,4.60
2019-03-10T01:21:01.462Z,4.60
2019-03-10T01:21:13.243Z,4.60
2019-03-10T01:21:25.045Z,4.60
2019-03-10T01:21:39.264Z,4.60
2019-03-10T01:21:51.034Z,4.60
2019-03-10T01:22:02.872Z,4.60
2019-03-10T01:22:14.640Z,4.60
2019-03-10T01:22:26.474Z,4.60
2019-03-10T01:22:40.605Z,4.60
2019-03-10T01:22:52.449Z,4.50
2019-03-10T01:23:04.238Z,4.60
2019-03-10T01:23:15.986Z,4.60
2019-03-10T01:23:27.786Z,4.60
2019-03-10T01:23:39.568Z,4.60
2019-03-10T01:23:51.343Z,4.60
2019-03-10T01:24:03.103Z,4.60
2019-03-10T01:24:14.858Z,4.60
2019-03-10T01:24:26.655Z,4.60
2019-03-10T01:24:38.447Z,4.60
2019-03-10T01:24:50.226Z,4.70
2019-03-10T01:25:02.021Z,4.70
2019-03-10T01:25:16.178Z,4.70
2019-03-10T01:25:27.945Z,4.70
2019-03-10T01:25:39.747Z,4.70
2019-03-10T01:25:51.520Z,4.70
2019-03-10T01:26:03.290Z,4.70
2019-03-10T01:26:15.051Z,4.70
2019-03-10T01:26:26.845Z,4.70
2019-03-10T01:26:38.646Z,4.70
2019-03-10T01:26:50.543Z,4.70
2019-03-10T01:27:02.432Z,4.70
2019-03-10T01:27:14.257Z,4.70
2019-03-10T01:27:26.038Z,4.70
2019-03-10T01:27:37.803Z,4.70
2019-03-10T01:27:49.553Z,4.80
2019-03-10T01:28:03.659Z,4.80
2019-03-10T01:28:15.466Z,4.80
2019-03-10T01:28:27.249Z,4.80
2019-03-10T01:28:39.043Z,4.80
2019-03-10T01:28:50.804Z,4.80
2019-03-10T01:29:02.973Z,4.80
2019-03-10T01:29:14.748Z,4.80
2019-03-10T01:29:26.559Z,4.80
2019-03-10T01:29:38.346Z,4.80
2019-03-10T01:29:50.112Z,4.80
2019-03-10T01:30:01.948Z,4.80
2019-03-10T01:30:13.697Z,4.80
2019-03-10T01:30:25.566Z,4.80
2019-03-10T01:30:37.316Z,4.80
2019-03-10T01:30:49.156Z,4.80
2019-03-10T01:31:00.919Z,4.80
2019-03-10T01:31:12.743Z,4.80
2019-03-10T01:31:24.552Z,4.80
2019-03-10T01:31:36.316Z,4.80
2019-03-10T01:31:48.094Z,4.80
2019-03-10T01:31:59.847Z,4.80
2019-03-10T01:32:11.620Z,4.80
2019-03-10T01:32:23.385Z,4.80
2019-03-10T01:32:35.243Z,4.80
2019-03-10T01:32:47.054Z,4.70
2019-03-10T01:32:58.804Z,4.70
2019-03-10T01:33:12.948Z,4.70
2019-03-10T01:33:24.747Z,4.70
2019-03-10T01:33:36.539Z,4.70
2019-03-10T01:33:48.353Z,4.70
2019-03-10T01:34:00.104Z,4.70
2019-03-10T01:34:11.853Z,4.70
2019-03-10T01:34:23.643Z,4.70
2019-03-10T01:34:35.448Z,4.70
2019-03-10T01:34:47.241Z,4.70
2019-03-10T01:35:01.392Z,4.70
2019-03-10T01:35:15.553Z,4.70
2019-03-10T01:35:27.344Z,4.70
2019-03-10T01:35:39.122Z,4.70
2019-03-10T01:35:50.891Z,4.70
2019-03-10T01:36:02.691Z,4.70
2019-03-10T01:36:14.536Z,4.70
2019-03-10T01:36:26.350Z,4.80
2019-03-10T01:36:38.149Z,4.80
2019-03-10T01:36:52.249Z,4.80
2019-03-10T01:37:04.035Z,4.70
2019-03-10T01:37:15.795Z,4.80
2019-03-10T01:37:27.524Z,4.80
2019-03-10T01:37:39.294Z,4.80
2019-03-10T01:37:51.220Z,4.80
2019-03-10T01:38:03.177Z,4.80
2019-03-10T01:38:14.968Z,4.80
2019-03-10T01:38:26.716Z,4.80
2019-03-10T01:38:38.490Z,4.80
2019-03-10T01:38:50.271Z,4.80
2019-03-10T01:39:02.047Z,4.80
2019-03-10T01:39:13.848Z,4.80
2019-03-10T01:39:25.607Z,4.80
2019-03-10T01:39:37.368Z,4.80
2019-03-10T01:39:49.151Z,4.80
2019-03-10T01:40:00.966Z,4.80
2019-03-10T01:40:12.788Z,4.80
2019-03-10T01:40:25.662Z,4.80
2019-03-10T01:40:37.534Z,4.70
2019-03-10T01:40:49.347Z,4.70
2019-03-10T01:41:01.115Z,4.80
2019-03-10T01:41:15.248Z,4.80
2019-03-10T01:41:29.353Z,4.80
2019-03-10T01:41:41.126Z,4.70
2019-03-10T01:41:52.890Z,4.70
2019-03-10T01:42:04.780Z,4.70
2019-03-10T01:42:16.550Z,4.80
2019-03-10T01:42:28.362Z,4.80
2019-03-10T01:42:40.136Z,4.80
2019-03-10T01:42:54.260Z,4.80
2019-03-10T01:43:08.356Z,4.80
2019-03-10T01:43:20.127Z,4.80
2019-03-10T01:43:31.895Z,4.80
2019-03-10T01:43:43.647Z,4.80
2019-03-10T01:43:55.512Z,4.80
2019-03-10T01:44:07.241Z,4.80
2019-03-10T01:44:19.027Z,4.80
2019-03-10T01:44:30.791Z,4.80
2019-03-10T01:44:42.562Z,4.80
2019-03-10T01:44:54.350Z,4.80
2019-03-10T01:45:06.160Z,4.80
2019-03-10T01:45:20.265Z,4.80
2019-03-10T01:45:32.027Z,4.80
2019-03-10T01:45:43.817Z,4.80
2019-03-10T01:45:55.598Z,4.80
2019-03-10T01:46:07.457Z,4.80
2019-03-10T01:46:19.275Z,4.80
2019-03-10T01:46:33.365Z,4.80
2019-03-10T01:46:45.128Z,4.80
2019-03-10T01:46:56.878Z,4.80
2019-03-10T01:47:08.634Z,4.80
2019-03-10T01:47:20.406Z,4.80
2019-03-10T01:47:32.183Z,4.80
2019-03-10T01:47:46.323Z,4.90
2019-03-10T01:48:00.391Z,4.90
2019-03-10T01:48:12.212Z,4.90
2019-03-10T01:48:23.915Z,4.90
2019-03-10T01:48:35.754Z,4.90
2019-03-10T01:48:47.548Z,4.90
2019-03-10T01:48:59.420Z,4.90
2019-03-10T01:49:11.289Z,4.90
2019-03-10T01:49:23.051Z,4.90
2019-03-10T01:49:34.834Z,5.00
2019-03-10T01:49:46.596Z,4.90
2019-03-10T01:49:58.358Z,4.90
2019-03-10T01:50:10.165Z,4.90
2019-03-10T01:50:21.933Z,4.90
2019-03-10T01:50:33.762Z,4.90
2019-03-10T01:50:45.531Z,4.90
2019-03-10T01:50:57.287Z,4.90
2019-03-10T01:51:11.403Z,4.90
2019-03-10T01:51:23.185Z,4.90
2019-03-10T01:51:34.958Z,4.90
2019-03-10T01:51:46.738Z,4.90
2019-03-10T01:51:58.528Z,4.90
2019-03-10T01:52:12.611Z,4.90
2019-03-10T01:52:24.358Z,4.90
2019-03-10T01:52:36.138Z,4.90
2019-03-10T01:52:47.958Z,4.90
2019-03-10T01:52:59.740Z,4.90
2019-03-10T01:53:11.511Z,4.90
2019-03-10T01:53:25.811Z,4.90
2019-03-10T01:53:35.066Z,4.90
2019-03-10T01:53:46.880Z,4.90
2019-03-10T01:53:58.646Z,4.90
2019-03-10T01:54:10.528Z,4.90
2019-03-10T01:54:24.591Z,4.90
2019-03-10T01:54:38.746Z,4.90
2019-03-10T01:54:50.498Z,4.90
2019-03-10T01:55:02.273Z,4.90
2019-03-10T01:55:14.060Z,4.90
2019-03-10T01:55:25.837Z,4.90
2019-03-10T01:55:37.642Z,4.90
2019-03-10T01:55:49.455Z,4.90
2019-03-10T01:56:01.223Z,4.90
2019-03-10T01:56:13.004Z,4.90
2019-03-10T01:56:24.756Z,4.90
2019-03-10T01:56:36.518Z,4.90
2019-03-10T01:56:48.376Z,4.90
2019-03-10T01:57:00.151Z,4.90
2019-03-10T01:57:11.900Z,4.90
2019-03-10T01:57:23.676Z,4.90
2019-03-10T01:57:35.424Z,4.90
2019-03-10T01:57:49.535Z,4.90
2019-03-10T01:58:01.280Z,4.90
2019-03-10T01:58:13.056Z,4.90
2019-03-10T01:58:24.824Z,4.90
2019-03-10T01:58:36.596Z,4.90
2019-03-10T01:58:48.360Z,4.90
2019-03-10T01:59:00.136Z,4.90
2019-03-10T01:59:11.946Z,5.00
2019-03-10T01:59:23.719Z,4.90
2019-03-10T01:59:35.570Z,5.00
2019-03-10T01:59:47.344Z,5.00
2019-03-10T01:59:59.115Z,4.90
2019-03-10T02:00:10.921Z,5.00
2019-03-10T02:00:22.732Z,5.00
2019-03-10T02:00:34.550Z,5.00
2019-03-10T02:00:46.340Z,5.00
2019-03-10T02:00:58.093Z,5.00
2019-03-10T02:01:09.849Z,5.00
2019-03-10T02:01:21.604Z,5.00
2019-03-10T02:01:33.436Z,5.00
2019-03-10T02:01:45.203Z,5.00
2019-03-10T02:01:56.983Z,5.00
2019-03-10T02:02:08.749Z,4.90
2019-03-10T02:02:25.672Z,4.90
2019-03-10T02:02:32.358Z,4.90
2019-03-10T02:02:44.144Z,5.00
2019-03-10T02:02:55.914Z,4.90
2019-03-10T02:03:07.692Z,4.90
2019-03-10T02:03:19.467Z,4.90
2019-03-10T02:03:31.225Z,4.90
2019-03-10T02:03:43.055Z,4.90
2019-03-10T02:03:54.831Z,4.90
2019-03-10T02:04:06.706Z,4.90
2019-03-10T02:04:18.452Z,4.90
2019-03-10T02:04:30.250Z,5.00
2019-03-10T02:04:42.060Z,4.90
2019-03-10T02:04:53.837Z,5.00
2019-03-10T02:05:05.648Z,5.00
2019-03-10T02:05:17.497Z,4.90
2019-03-10T02:05:29.336Z,4.90
2019-03-10T02:05:41.095Z,4.90
2019-03-10T02:05:52.864Z,4.90
2019-03-10T02:06:04.639Z,4.90
2019-03-10T02:06:16.423Z,4.90
2019-03-10T02:06:28.188Z,4.90
2019-03-10T02:06:39.946Z,4.90
2019-03-10T02:06:51.707Z,4.90
2019-03-10T02:07:03.544Z,4.90
2019-03-10T02:07:17.655Z,4.90
2019-03-10T02:07:29.430Z,4.90
2019-03-10T02:07:41.181Z,4.90
2019-03-10T02:07:52.957Z,4.90
2019-03-10T02:08:04.758Z,4.90
2019-03-10T02:08:16.551Z,4.90
2019-03-10T02:08:28.322Z,4.90
2019-03-10T02:08:40.107Z,4.90
2019-03-10T02:08:54.201Z,4.90
2019-03-10T02:09:06.148Z,4.90
2019-03-10T02:09:18.182Z,4.90
2019-03-10T02:09:29.982Z,4.90
2019-03-10T02:09:41.757Z,4.90
2019-03-10T02:09:53.541Z,4.90
2019-03-10T02:10:05.380Z,4.90
2019-03-10T02:10:17.211Z,4.90
2019-03-10T02:10:28.974Z,4.90
2019-03-10T02:10:40.769Z,4.90
2019-03-10T02:10:52.545Z,4.90
2019-03-10T02:11:04.396Z,4.90
2019-03-10T02:11:18.550Z,5.00
2019-03-10T02:11:30.924Z,5.00
2019-03-10T02:11:42.693Z,5.00
2019-03-10T02:11:56.793Z,5.00
2019-03-10T02:12:08.647Z,5.00
2019-03-10T02:12:20.417Z,5.10
2019-03-10T02:12:32.247Z,5.10
2019-03-10T02:12:46.346Z,5.10
2019-03-10T02:12:58.154Z,5.10
2019-03-10T02:13:09.946Z,5.10
2019-03-10T02:13:22.031Z,5.10
2019-03-10T02:13:33.983Z,5.10
2019-03-10T02:13:45.706Z,5.10
2019-03-10T02:13:57.466Z,5.10
2019-03-10T02:14:09.241Z,5.10
2019-03-10T02:14:21.080Z,5.20
2019-03-10T02:14:32.835Z,5.20
2019-03-10T02:14:44.652Z,5.20
2019-03-10T02:14:58.752Z,5.20
2019-03-10T02:15:10.510Z,5.20
2019-03-10T02:15:22.369Z,5.20
2019-03-10T02:15:34.125Z,5.20
2019-03-10T02:15:45.947Z,5.20
2019-03-10T02:15:57.705Z,5.20
2019-03-10T02:16:09.471Z,5.20
2019-03-10T02:16:21.368Z,5.20
2019-03-10T02:16:33.137Z,5.20
2019-03-10T02:16:44.961Z,5.20
2019-03-10T02:16:56.740Z,5.20
2019-03-10T02:17:08.617Z,5.20
2019-03-10T02:17:20.415Z,5.20
2019-03-10T02:17:32.184Z,5.20
2019-03-10T02:17:46.289Z,5.20
2019-03-10T02:17:58.050Z,5.20
2019-03-10T02:18:09.863Z,5.20
2019-03-10T02:18:21.672Z,5.30
2019-03-10T02:18:33.450Z,5.30
2019-03-10T02:18:45.518Z,5.30
2019-03-10T02:18:57.280Z,5.30
2019-03-10T02:19:09.152Z,5.20
2019-03-10T02:19:20.936Z,5.20
2019-03-10T02:19:32.696Z,5.20
2019-03-10T02:19:44.462Z,5.20
2019-03-10T02:19:56.216Z,5.20
2019-03-10T02:20:07.973Z,5.20
2019-03-10T02:20:19.813Z,5.30
2019-03-10T02:20:33.952Z,5.30
2019-03-10T02:20:45.731Z,5.20
2019-03-10T02:20:57.493Z,5.20
2019-03-10T02:21:11.593Z,5.20
2019-03-10T02:21:23.382Z,5.20
2019-03-10T02:21:35.130Z,5.20
2019-03-10T02:21:46.887Z,5.30
2019-03-10T02:21:58.732Z,5.20
2019-03-10T02:22:12.851Z,5.20
2019-03-10T02:22:24.646Z,5.20
2019-03-10T02:22:36.461Z,5.20
2019-03-10T02:22:48.225Z,5.20
2019-03-10T02:23:00.046Z,5.20
2019-03-10T02:23:11.841Z,5.20
2019-03-10T02:23:23.595Z,5.20
2019-03-10T02:23:35.353Z,5.20
2019-03-10T02:23:47.139Z,5.20
2019-03-10T02:23:58.939Z,5.20
2019-03-10T02:24:10.759Z,5.10
2019-03-10T02:24:24.124Z,5.20
2019-03-10T02:24:34.326Z,5.20
2019-03-10T02:24:46.148Z,5.20
2019-03-10T02:24:57.934Z,5.20
2019-03-10T02:25:12.014Z,5.20
2019-03-10T02:25:23.836Z,5.20
2019-03-10T02:25:37.938Z,5.20
2019-03-10T02:25:49.737Z,5.20
2019-03-10T02:26:01.505Z,5.20
2019-03-10T02:26:13.346Z,5.20
2019-03-10T02:26:25.147Z,5.20
2019-03-10T02:26:36.939Z,5.30
2019-03-10T02:26:48.742Z,5.20
2019-03-10T02:27:00.511Z,5.30
2019-03-10T02:27:14.603Z,5.30
2019-03-10T02:27:26.369Z,5.30
2019-03-10T02:27:38.166Z,5.30
2019-03-10T02:27:49.949Z,5.30
2019-03-10T02:28:01.747Z,5.30
2019-03-10T02:28:13.561Z,5.30
2019-03-10T02:28:25.294Z,5.30
2019-03-10T02:28:37.050Z,5.30
2019-03-10T02:28:48.813Z,5.30
2019-03-10T02:29:00.556Z,5.30
2019-03-10T02:29:12.334Z,5.30
2019-03-10T02:29:24.096Z,5.30
2019-03-10T02:29:35.851Z,5.30
2019-03-10T02:29:47.613Z,5.30
2019-03-10T02:29:59.470Z,5.30
2019-03-10T02:30:11.242Z,5.30
2019-03-10T02:30:23.054Z,5.30
2019-03-10T02:30:34.866Z,5.30
2019-03-10T02:30:46.652Z,5.30
2019-03-10T02:30:58.546Z,5.30
2019-03-10T02:31:10.374Z,5.30
2019-03-10T02:31:22.176Z,5.30
2019-03-10T02:31:33.949Z,5.30
2019-03-10T02:31:45.723Z,5.30
2019-03-10T02:31:57.519Z,5.30
2019-03-10T02:32:09.344Z,5.30
2019-03-10T02:32:21.101Z,5.30
2019-03-10T02:32:32.857Z,5.20
2019-03-10T02:32:44.637Z,5.30
2019-03-10T02:32:56.393Z,5.30
2019-03-10T02:33:08.159Z,5.30
2019-03-10T02:33:19.972Z,5.30
2019-03-10T02:33:31.739Z,5.30
2019-03-10T02:33:43.511Z,5.30
2019-03-10T02:33:55.339Z,5.30
2019-03-10T02:34:09.426Z,5.30
2019-03-10T02:34:21.171Z,5.20
2019-03-10T02:34:32.941Z,5.30
2019-03-10T02:34:44.716Z,5.30
2019-03-10T02:34:56.479Z,5.30
2019-03-10T02:35:08.284Z,5.20
2019-03-10T02:35:20.106Z,5.20
2019-03-10T02:35:31.883Z,5.30
2019-03-10T02:35:43.656Z,5.30
2019-03-10T02:35:55.447Z,5.20
2019-03-10T02:36:07.207Z,5.20
2019-03-10T02:36:18.945Z,5.30
2019-03-10T02:36:30.701Z,5.30
2019-03-10T02:36:42.558Z,5.20
2019-03-10T02:36:56.650Z,5.30
2019-03-10T02:37:08.418Z,5.30
2019-03-10T02:37:20.195Z,5.30
2019-03-10T02:37:31.978Z,5.30
2019-03-10T02:37:43.747Z,5.30
2019-03-10T02:37:55.510Z,5.30
2019-03-10T02:38:07.784Z,5.30
2019-03-10T02:38:19.574Z,5.30
2019-03-10T02:38:31.324Z,5.30
2019-03-10T02:38:43.141Z,5.30
2019-03-10T02:38:54.963Z,5.30
2019-03-10T02:39:06.910Z,5.30
2019-03-10T02:39:18.752Z,5.30
2019-03-10T02:39:30.525Z,5.30
2019-03-10T02:39:42.464Z,5.30
2019-03-10T02:39:54.238Z,5.30
2019-03-10T02:40:06.092Z,5.30